sensor_id;sensor_type;location;lat;lon;timestamp;P1;durP1;ratioP1;P2;durP2;ratioP2
13432;SDS011;6789;47.678;9.158;2023-03-01T00:01:41;25.07;;;13.53;;
13432;SDS011;6789;47.678;9.158;2023-03-01T00:06:33;22.83;;;12.53;;
13432;SDS011;6789;47.678;9.158;2023-03-01T00:11:26;22.53;;;12.60;;
13432;SDS011;6789;47.678;9.158;2023-03-01T00:16:21;23.47;;;13.47;;
13432;SDS011;6789;47.678;9.158;2023-03-01T00:21:20;23.40;;;12.57;;
13432;SDS011;6789;47.678;9.158;2023-03-01T00:26:13;21.40;;;12.97;;
13432;SDS011;6789;47.678;9.158;2023-03-01T00:31:07;22.03;;;13.27;;
13432;SDS011;6789;47.678;9.158;2023-03-01T00:36:06;22.97;;;12.40;;
13432;SDS011;6789;47.678;9.158;2023-03-01T00:41:02;22.83;;;13.23;;
13432;SDS011;6789;47.678;9.158;2023-03-01T00:46:00;23.70;;;13.90;;
13432;SDS011;6789;47.678;9.158;2023-03-01T00:51:07;25.73;;;13.90;;
13432;SDS011;6789;47.678;9.158;2023-03-01T00:56:12;26.63;;;13.60;;
13432;SDS011;6789;47.678;9.158;2023-03-01T01:01:09;24.93;;;13.40;;
13432;SDS011;6789;47.678;9.158;2023-03-01T01:06:12;28.20;;;14.70;;
13432;SDS011;6789;47.678;9.158;2023-03-01T01:11:10;26.37;;;14.03;;
13432;SDS011;6789;47.678;9.158;2023-03-01T01:16:03;29.00;;;14.60;;
13432;SDS011;6789;47.678;9.158;2023-03-01T01:20:55;29.60;;;15.83;;
13432;SDS011;6789;47.678;9.158;2023-03-01T01:25:46;27.17;;;16.47;;
13432;SDS011;6789;47.678;9.158;2023-03-01T01:30:38;27.13;;;15.73;;
13432;SDS011;6789;47.678;9.158;2023-03-01T01:35:30;31.30;;;17.07;;
13432;SDS011;6789;47.678;9.158;2023-03-01T01:40:22;27.83;;;15.77;;
13432;SDS011;6789;47.678;9.158;2023-03-01T01:50:25;26.37;;;14.40;;
13432;SDS011;6789;47.678;9.158;2023-03-01T01:55:22;29.17;;;15.60;;
13432;SDS011;6789;47.678;9.158;2023-03-01T02:00:22;27.10;;;15.60;;
13432;SDS011;6789;47.678;9.158;2023-03-01T02:10:17;29.60;;;14.97;;
13432;SDS011;6789;47.678;9.158;2023-03-01T02:15:09;30.47;;;15.73;;
13432;SDS011;6789;47.678;9.158;2023-03-01T02:25:12;28.27;;;16.10;;
13432;SDS011;6789;47.678;9.158;2023-03-01T02:30:09;29.47;;;17.30;;
13432;SDS011;6789;47.678;9.158;2023-03-01T02:35:03;32.60;;;15.47;;
13432;SDS011;6789;47.678;9.158;2023-03-01T02:39:58;29.07;;;15.53;;
13432;SDS011;6789;47.678;9.158;2023-03-01T02:44:56;33.37;;;15.50;;
13432;SDS011;6789;47.678;9.158;2023-03-01T02:49:48;30.60;;;16.33;;
13432;SDS011;6789;47.678;9.158;2023-03-01T02:54:41;27.07;;;15.13;;
13432;SDS011;6789;47.678;9.158;2023-03-01T02:59:53;29.83;;;15.10;;
13432;SDS011;6789;47.678;9.158;2023-03-01T03:05:03;31.20;;;17.03;;
13432;SDS011;6789;47.678;9.158;2023-03-01T03:10:03;31.90;;;15.47;;
13432;SDS011;6789;47.678;9.158;2023-03-01T03:14:58;29.00;;;16.23;;
13432;SDS011;6789;47.678;9.158;2023-03-01T03:20:04;27.97;;;15.00;;
13432;SDS011;6789;47.678;9.158;2023-03-01T03:25:02;27.50;;;14.83;;
13432;SDS011;6789;47.678;9.158;2023-03-01T03:29:53;25.43;;;13.90;;
13432;SDS011;6789;47.678;9.158;2023-03-01T03:34:45;25.40;;;13.77;;
13432;SDS011;6789;47.678;9.158;2023-03-01T03:39:37;27.27;;;14.40;;
13432;SDS011;6789;47.678;9.158;2023-03-01T03:44:29;24.13;;;12.60;;
13432;SDS011;6789;47.678;9.158;2023-03-01T03:49:20;27.10;;;13.50;;
13432;SDS011;6789;47.678;9.158;2023-03-01T03:54:12;24.60;;;14.53;;
13432;SDS011;6789;47.678;9.158;2023-03-01T03:59:04;28.43;;;14.57;;
13432;SDS011;6789;47.678;9.158;2023-03-01T04:03:56;27.47;;;13.40;;
13432;SDS011;6789;47.678;9.158;2023-03-01T04:08:54;28.33;;;13.83;;
13432;SDS011;6789;47.678;9.158;2023-03-01T04:13:49;27.30;;;14.33;;
13432;SDS011;6789;47.678;9.158;2023-03-01T04:18:44;26.57;;;13.23;;
13432;SDS011;6789;47.678;9.158;2023-03-01T04:23:36;33.57;;;14.33;;
13432;SDS011;6789;47.678;9.158;2023-03-01T04:28:30;28.17;;;14.33;;
13432;SDS011;6789;47.678;9.158;2023-03-01T04:33:36;24.93;;;13.57;;
13432;SDS011;6789;47.678;9.158;2023-03-01T04:38:28;25.63;;;13.87;;
13432;SDS011;6789;47.678;9.158;2023-03-01T04:43:20;27.03;;;14.27;;
13432;SDS011;6789;47.678;9.158;2023-03-01T04:48:11;28.70;;;14.27;;
13432;SDS011;6789;47.678;9.158;2023-03-01T04:53:17;26.37;;;13.97;;
13432;SDS011;6789;47.678;9.158;2023-03-01T04:58:25;25.83;;;14.10;;
13432;SDS011;6789;47.678;9.158;2023-03-01T05:03:33;28.40;;;13.87;;
13432;SDS011;6789;47.678;9.158;2023-03-01T05:08:39;29.63;;;14.47;;
13432;SDS011;6789;47.678;9.158;2023-03-01T05:13:34;25.80;;;14.23;;
13432;SDS011;6789;47.678;9.158;2023-03-01T05:18:41;29.17;;;14.83;;
13432;SDS011;6789;47.678;9.158;2023-03-01T05:23:48;24.83;;;13.23;;
13432;SDS011;6789;47.678;9.158;2023-03-01T05:28:54;30.37;;;14.07;;
13432;SDS011;6789;47.678;9.158;2023-03-01T05:33:52;30.43;;;14.57;;
13432;SDS011;6789;47.678;9.158;2023-03-01T05:38:58;28.27;;;14.43;;
13432;SDS011;6789;47.678;9.158;2023-03-01T05:44:05;28.07;;;13.97;;
13432;SDS011;6789;47.678;9.158;2023-03-01T05:49:12;27.83;;;14.13;;
13432;SDS011;6789;47.678;9.158;2023-03-01T05:54:19;29.50;;;13.93;;
13432;SDS011;6789;47.678;9.158;2023-03-01T05:59:26;26.13;;;13.90;;
13432;SDS011;6789;47.678;9.158;2023-03-01T06:04:32;29.07;;;13.73;;
13432;SDS011;6789;47.678;9.158;2023-03-01T06:09:38;27.57;;;14.30;;
13432;SDS011;6789;47.678;9.158;2023-03-01T06:14:44;27.90;;;14.63;;
13432;SDS011;6789;47.678;9.158;2023-03-01T06:19:52;28.43;;;14.80;;
13432;SDS011;6789;47.678;9.158;2023-03-01T06:24:58;32.57;;;14.93;;
13432;SDS011;6789;47.678;9.158;2023-03-01T06:30:04;27.53;;;13.67;;
13432;SDS011;6789;47.678;9.158;2023-03-01T06:35:12;24.63;;;13.43;;
13432;SDS011;6789;47.678;9.158;2023-03-01T06:40:10;33.57;;;15.33;;
13432;SDS011;6789;47.678;9.158;2023-03-01T06:45:09;29.00;;;14.13;;
13432;SDS011;6789;47.678;9.158;2023-03-01T06:50:16;27.43;;;15.17;;
13432;SDS011;6789;47.678;9.158;2023-03-01T06:55:23;27.70;;;15.37;;
13432;SDS011;6789;47.678;9.158;2023-03-01T07:00:30;22.13;;;12.67;;
13432;SDS011;6789;47.678;9.158;2023-03-01T07:05:36;32.97;;;16.87;;
13432;SDS011;6789;47.678;9.158;2023-03-01T07:10:42;26.33;;;13.60;;
13432;SDS011;6789;47.678;9.158;2023-03-01T07:15:35;28.93;;;14.20;;
13432;SDS011;6789;47.678;9.158;2023-03-01T07:20:41;29.47;;;14.87;;
13432;SDS011;6789;47.678;9.158;2023-03-01T07:25:51;28.87;;;13.83;;
13432;SDS011;6789;47.678;9.158;2023-03-01T07:31:02;32.97;;;15.10;;
13432;SDS011;6789;47.678;9.158;2023-03-01T07:36:09;29.00;;;15.03;;
13432;SDS011;6789;47.678;9.158;2023-03-01T07:41:25;32.83;;;14.60;;
13432;SDS011;6789;47.678;9.158;2023-03-01T07:46:27;31.03;;;15.07;;
13432;SDS011;6789;47.678;9.158;2023-03-01T07:51:44;27.00;;;13.27;;
13432;SDS011;6789;47.678;9.158;2023-03-01T07:56:46;32.23;;;16.30;;
13432;SDS011;6789;47.678;9.158;2023-03-01T08:01:53;28.87;;;15.27;;
13432;SDS011;6789;47.678;9.158;2023-03-01T08:06:59;28.13;;;14.93;;
13432;SDS011;6789;47.678;9.158;2023-03-01T08:12:06;32.83;;;16.30;;
13432;SDS011;6789;47.678;9.158;2023-03-01T08:17:13;30.30;;;16.40;;
13432;SDS011;6789;47.678;9.158;2023-03-01T08:22:19;29.73;;;15.80;;
13432;SDS011;6789;47.678;9.158;2023-03-01T08:27:25;30.33;;;14.93;;
13432;SDS011;6789;47.678;9.158;2023-03-01T08:32:19;31.37;;;15.60;;
13432;SDS011;6789;47.678;9.158;2023-03-01T08:37:24;28.37;;;14.87;;
13432;SDS011;6789;47.678;9.158;2023-03-01T08:42:21;25.17;;;14.67;;
13432;SDS011;6789;47.678;9.158;2023-03-01T08:47:38;26.83;;;14.33;;
13432;SDS011;6789;47.678;9.158;2023-03-01T08:52:44;27.33;;;13.57;;
13432;SDS011;6789;47.678;9.158;2023-03-01T08:57:55;28.00;;;15.10;;
13432;SDS011;6789;47.678;9.158;2023-03-01T09:03:05;29.53;;;16.00;;
13432;SDS011;6789;47.678;9.158;2023-03-01T09:08:11;30.80;;;15.63;;
13432;SDS011;6789;47.678;9.158;2023-03-01T09:13:21;30.53;;;14.80;;
13432;SDS011;6789;47.678;9.158;2023-03-01T09:18:34;27.53;;;14.50;;
13432;SDS011;6789;47.678;9.158;2023-03-01T09:23:44;28.37;;;14.27;;
13432;SDS011;6789;47.678;9.158;2023-03-01T09:29:03;26.67;;;14.67;;
13432;SDS011;6789;47.678;9.158;2023-03-01T09:34:09;26.80;;;13.93;;
13432;SDS011;6789;47.678;9.158;2023-03-01T09:39:15;23.83;;;13.23;;
13432;SDS011;6789;47.678;9.158;2023-03-01T09:44:36;27.83;;;13.93;;
13432;SDS011;6789;47.678;9.158;2023-03-01T09:50:09;25.63;;;13.80;;
13432;SDS011;6789;47.678;9.158;2023-03-01T10:01:10;31.00;;;16.53;;
13432;SDS011;6789;47.678;9.158;2023-03-01T10:06:41;27.53;;;14.10;;
13432;SDS011;6789;47.678;9.158;2023-03-01T10:12:17;26.23;;;13.43;;
13432;SDS011;6789;47.678;9.158;2023-03-01T10:17:49;26.80;;;14.87;;
13432;SDS011;6789;47.678;9.158;2023-03-01T10:23:01;26.03;;;12.83;;
13432;SDS011;6789;47.678;9.158;2023-03-01T10:28:29;30.87;;;16.87;;
13432;SDS011;6789;47.678;9.158;2023-03-01T10:34:14;29.00;;;15.10;;
13432;SDS011;6789;47.678;9.158;2023-03-01T10:39:33;26.50;;;14.33;;
13432;SDS011;6789;47.678;9.158;2023-03-01T10:44:44;27.13;;;14.37;;
13432;SDS011;6789;47.678;9.158;2023-03-01T10:49:57;28.93;;;15.40;;
13432;SDS011;6789;47.678;9.158;2023-03-01T11:00:24;29.33;;;13.43;;
13432;SDS011;6789;47.678;9.158;2023-03-01T11:05:31;25.73;;;14.27;;
13432;SDS011;6789;47.678;9.158;2023-03-01T11:10:38;26.93;;;14.10;;
13432;SDS011;6789;47.678;9.158;2023-03-01T11:16:01;27.10;;;15.37;;
13432;SDS011;6789;47.678;9.158;2023-03-01T11:21:15;27.67;;;14.80;;
13432;SDS011;6789;47.678;9.158;2023-03-01T11:26:42;27.63;;;14.40;;
13432;SDS011;6789;47.678;9.158;2023-03-01T11:32:18;26.60;;;13.20;;
13432;SDS011;6789;47.678;9.158;2023-03-01T11:37:34;27.87;;;14.40;;
13432;SDS011;6789;47.678;9.158;2023-03-01T11:43:33;27.53;;;15.87;;
13432;SDS011;6789;47.678;9.158;2023-03-01T12:07:15;27.27;;;15.10;;
13432;SDS011;6789;47.678;9.158;2023-03-01T12:25:10;26.27;;;13.87;;
13432;SDS011;6789;47.678;9.158;2023-03-01T12:36:18;26.33;;;12.70;;
13432;SDS011;6789;47.678;9.158;2023-03-01T12:53:37;29.50;;;14.53;;
13432;SDS011;6789;47.678;9.158;2023-03-01T13:10:36;28.10;;;13.80;;
13432;SDS011;6789;47.678;9.158;2023-03-01T13:15:55;32.40;;;13.60;;
13432;SDS011;6789;47.678;9.158;2023-03-01T13:21:02;25.27;;;13.90;;
13432;SDS011;6789;47.678;9.158;2023-03-01T13:26:13;33.77;;;15.30;;
13432;SDS011;6789;47.678;9.158;2023-03-01T13:46:39;27.50;;;13.40;;
13432;SDS011;6789;47.678;9.158;2023-03-01T13:51:46;30.03;;;16.47;;
13432;SDS011;6789;47.678;9.158;2023-03-01T13:56:54;27.30;;;14.17;;
13432;SDS011;6789;47.678;9.158;2023-03-01T14:02:10;23.87;;;13.63;;
13432;SDS011;6789;47.678;9.158;2023-03-01T14:07:19;31.47;;;14.43;;
13432;SDS011;6789;47.678;9.158;2023-03-01T14:12:50;32.13;;;14.90;;
13432;SDS011;6789;47.678;9.158;2023-03-01T14:23:52;29.73;;;14.47;;
13432;SDS011;6789;47.678;9.158;2023-03-01T14:28:46;24.57;;;13.40;;
13432;SDS011;6789;47.678;9.158;2023-03-01T14:34:21;27.33;;;13.67;;
13432;SDS011;6789;47.678;9.158;2023-03-01T14:39:29;26.70;;;13.50;;
13432;SDS011;6789;47.678;9.158;2023-03-01T14:44:37;28.17;;;13.77;;
13432;SDS011;6789;47.678;9.158;2023-03-01T14:49:49;28.17;;;14.77;;
13432;SDS011;6789;47.678;9.158;2023-03-01T14:55:13;25.70;;;13.93;;
13432;SDS011;6789;47.678;9.158;2023-03-01T15:00:27;25.07;;;14.10;;
13432;SDS011;6789;47.678;9.158;2023-03-01T15:05:38;27.37;;;15.60;;
13432;SDS011;6789;47.678;9.158;2023-03-01T15:10:40;27.70;;;14.00;;
13432;SDS011;6789;47.678;9.158;2023-03-01T15:21:39;27.27;;;14.30;;
13432;SDS011;6789;47.678;9.158;2023-03-01T15:26:54;25.57;;;13.67;;
13432;SDS011;6789;47.678;9.158;2023-03-01T15:32:23;26.77;;;14.17;;
13432;SDS011;6789;47.678;9.158;2023-03-01T15:42:54;29.60;;;14.73;;
13432;SDS011;6789;47.678;9.158;2023-03-01T15:48:04;27.63;;;15.57;;
13432;SDS011;6789;47.678;9.158;2023-03-01T15:53:26;29.40;;;15.37;;
13432;SDS011;6789;47.678;9.158;2023-03-01T15:58:33;27.40;;;14.57;;
13432;SDS011;6789;47.678;9.158;2023-03-01T16:03:39;25.80;;;14.20;;
13432;SDS011;6789;47.678;9.158;2023-03-01T16:08:45;33.67;;;15.17;;
13432;SDS011;6789;47.678;9.158;2023-03-01T16:13:51;25.67;;;14.20;;
13432;SDS011;6789;47.678;9.158;2023-03-01T16:18:56;26.10;;;14.73;;
13432;SDS011;6789;47.678;9.158;2023-03-01T16:24:03;32.80;;;15.47;;
13432;SDS011;6789;47.678;9.158;2023-03-01T16:29:09;29.63;;;15.80;;
13432;SDS011;6789;47.678;9.158;2023-03-01T16:34:14;35.83;;;15.50;;
13432;SDS011;6789;47.678;9.158;2023-03-01T16:39:20;31.47;;;15.40;;
13432;SDS011;6789;47.678;9.158;2023-03-01T16:44:14;29.37;;;15.80;;
13432;SDS011;6789;47.678;9.158;2023-03-01T16:49:11;29.60;;;14.47;;
13432;SDS011;6789;47.678;9.158;2023-03-01T16:54:17;30.40;;;15.47;;
13432;SDS011;6789;47.678;9.158;2023-03-01T16:59:23;33.10;;;16.60;;
13432;SDS011;6789;47.678;9.158;2023-03-01T17:04:28;30.60;;;16.03;;
13432;SDS011;6789;47.678;9.158;2023-03-01T17:09:35;32.00;;;16.47;;
13432;SDS011;6789;47.678;9.158;2023-03-01T17:14:42;34.60;;;16.77;;
13432;SDS011;6789;47.678;9.158;2023-03-01T17:19:48;30.83;;;15.57;;
13432;SDS011;6789;47.678;9.158;2023-03-01T17:24:53;32.80;;;15.90;;
13432;SDS011;6789;47.678;9.158;2023-03-01T17:29:46;28.53;;;14.90;;
13432;SDS011;6789;47.678;9.158;2023-03-01T17:34:52;30.10;;;14.77;;
13432;SDS011;6789;47.678;9.158;2023-03-01T17:39:44;29.80;;;14.50;;
13432;SDS011;6789;47.678;9.158;2023-03-01T17:44:50;30.43;;;14.70;;
13432;SDS011;6789;47.678;9.158;2023-03-01T17:49:56;31.00;;;14.93;;
13432;SDS011;6789;47.678;9.158;2023-03-01T17:55:02;30.80;;;14.50;;
13432;SDS011;6789;47.678;9.158;2023-03-01T18:00:10;25.70;;;14.40;;
13432;SDS011;6789;47.678;9.158;2023-03-01T18:05:19;23.47;;;13.73;;
13432;SDS011;6789;47.678;9.158;2023-03-01T18:10:24;28.87;;;13.87;;
13432;SDS011;6789;47.678;9.158;2023-03-01T18:15:26;30.80;;;15.13;;
13432;SDS011;6789;47.678;9.158;2023-03-01T18:20:33;28.60;;;14.83;;
13432;SDS011;6789;47.678;9.158;2023-03-01T18:25:38;26.27;;;13.67;;
13432;SDS011;6789;47.678;9.158;2023-03-01T18:30:44;28.07;;;14.47;;
13432;SDS011;6789;47.678;9.158;2023-03-01T18:35:50;25.13;;;13.67;;
13432;SDS011;6789;47.678;9.158;2023-03-01T18:40:44;27.43;;;14.93;;
13432;SDS011;6789;47.678;9.158;2023-03-01T18:45:57;26.03;;;14.60;;
13432;SDS011;6789;47.678;9.158;2023-03-01T18:51:12;31.07;;;14.83;;
13432;SDS011;6789;47.678;9.158;2023-03-01T18:56:08;29.07;;;14.70;;
13432;SDS011;6789;47.678;9.158;2023-03-01T19:01:33;26.90;;;14.27;;
13432;SDS011;6789;47.678;9.158;2023-03-01T19:06:39;27.20;;;14.97;;
13432;SDS011;6789;47.678;9.158;2023-03-01T19:11:50;25.50;;;13.73;;
13432;SDS011;6789;47.678;9.158;2023-03-01T19:16:46;28.60;;;14.30;;
13432;SDS011;6789;47.678;9.158;2023-03-01T19:21:41;25.97;;;14.17;;
13432;SDS011;6789;47.678;9.158;2023-03-01T19:26:46;30.40;;;15.03;;
13432;SDS011;6789;47.678;9.158;2023-03-01T19:31:40;27.00;;;15.10;;
13432;SDS011;6789;47.678;9.158;2023-03-01T19:36:33;29.10;;;16.13;;
13432;SDS011;6789;47.678;9.158;2023-03-01T19:41:26;28.07;;;14.97;;
13432;SDS011;6789;47.678;9.158;2023-03-01T19:46:32;31.20;;;15.67;;
13432;SDS011;6789;47.678;9.158;2023-03-01T19:51:38;30.37;;;16.03;;
13432;SDS011;6789;47.678;9.158;2023-03-01T19:56:45;31.37;;;15.87;;
13432;SDS011;6789;47.678;9.158;2023-03-01T20:01:38;26.93;;;14.90;;
13432;SDS011;6789;47.678;9.158;2023-03-01T20:06:36;31.53;;;15.20;;
13432;SDS011;6789;47.678;9.158;2023-03-01T20:11:29;30.00;;;16.10;;
13432;SDS011;6789;47.678;9.158;2023-03-01T20:16:37;29.27;;;15.23;;
13432;SDS011;6789;47.678;9.158;2023-03-01T20:21:33;30.20;;;15.40;;
13432;SDS011;6789;47.678;9.158;2023-03-01T20:26:31;28.80;;;15.70;;
13432;SDS011;6789;47.678;9.158;2023-03-01T20:31:25;32.13;;;15.73;;
13432;SDS011;6789;47.678;9.158;2023-03-01T20:36:20;28.33;;;15.77;;
13432;SDS011;6789;47.678;9.158;2023-03-01T20:41:26;28.20;;;15.90;;
13432;SDS011;6789;47.678;9.158;2023-03-01T20:46:20;30.00;;;15.63;;
13432;SDS011;6789;47.678;9.158;2023-03-01T20:51:15;30.20;;;15.70;;
13432;SDS011;6789;47.678;9.158;2023-03-01T20:56:09;31.00;;;16.77;;
13432;SDS011;6789;47.678;9.158;2023-03-01T21:01:16;30.77;;;16.13;;
13432;SDS011;6789;47.678;9.158;2023-03-01T21:06:12;27.37;;;14.73;;
13432;SDS011;6789;47.678;9.158;2023-03-01T21:11:18;26.47;;;15.10;;
13432;SDS011;6789;47.678;9.158;2023-03-01T21:16:12;29.47;;;16.03;;
13432;SDS011;6789;47.678;9.158;2023-03-01T21:21:19;29.50;;;15.80;;
13432;SDS011;6789;47.678;9.158;2023-03-01T21:26:18;32.53;;;16.83;;
13432;SDS011;6789;47.678;9.158;2023-03-01T21:31:21;34.70;;;16.77;;
13432;SDS011;6789;47.678;9.158;2023-03-01T21:36:18;29.50;;;16.30;;
13432;SDS011;6789;47.678;9.158;2023-03-01T21:41:13;32.43;;;15.87;;
13432;SDS011;6789;47.678;9.158;2023-03-01T21:46:11;32.67;;;17.23;;
13432;SDS011;6789;47.678;9.158;2023-03-01T21:51:07;33.67;;;16.83;;
13432;SDS011;6789;47.678;9.158;2023-03-01T21:56:03;32.53;;;16.50;;
13432;SDS011;6789;47.678;9.158;2023-03-01T22:01:08;32.27;;;16.33;;
13432;SDS011;6789;47.678;9.158;2023-03-01T22:06:03;31.00;;;17.07;;
13432;SDS011;6789;47.678;9.158;2023-03-01T22:10:57;32.73;;;17.03;;
13432;SDS011;6789;47.678;9.158;2023-03-01T22:15:53;33.23;;;16.80;;
13432;SDS011;6789;47.678;9.158;2023-03-01T22:20:45;34.60;;;16.93;;
13432;SDS011;6789;47.678;9.158;2023-03-01T22:25:41;32.77;;;16.93;;
13432;SDS011;6789;47.678;9.158;2023-03-01T22:30:33;30.50;;;16.07;;
13432;SDS011;6789;47.678;9.158;2023-03-01T22:35:26;32.07;;;16.67;;
13432;SDS011;6789;47.678;9.158;2023-03-01T22:40:18;34.03;;;17.33;;
13432;SDS011;6789;47.678;9.158;2023-03-01T22:45:10;34.63;;;16.83;;
13432;SDS011;6789;47.678;9.158;2023-03-01T22:50:04;31.13;;;16.63;;
13432;SDS011;6789;47.678;9.158;2023-03-01T22:54:59;30.80;;;16.37;;
13432;SDS011;6789;47.678;9.158;2023-03-01T22:59:59;32.53;;;17.00;;
13432;SDS011;6789;47.678;9.158;2023-03-01T23:04:52;33.10;;;17.87;;
13432;SDS011;6789;47.678;9.158;2023-03-01T23:09:44;29.20;;;16.07;;
13432;SDS011;6789;47.678;9.158;2023-03-01T23:14:40;33.43;;;17.23;;
13432;SDS011;6789;47.678;9.158;2023-03-01T23:19:36;35.00;;;17.57;;
13432;SDS011;6789;47.678;9.158;2023-03-01T23:24:29;30.63;;;17.33;;
13432;SDS011;6789;47.678;9.158;2023-03-01T23:29:23;36.10;;;18.67;;
13432;SDS011;6789;47.678;9.158;2023-03-01T23:34:17;31.60;;;17.20;;
13432;SDS011;6789;47.678;9.158;2023-03-01T23:39:12;35.07;;;18.43;;
13432;SDS011;6789;47.678;9.158;2023-03-01T23:44:06;36.43;;;18.80;;
13432;SDS011;6789;47.678;9.158;2023-03-01T23:48:59;35.23;;;17.87;;
13432;SDS011;6789;47.678;9.158;2023-03-01T23:53:53;35.53;;;18.10;;
13432;SDS011;6789;47.678;9.158;2023-03-01T23:58:52;38.00;;;19.20;;
